sensor_id;sensor_type;location;lat;lon;timestamp;P1;durP1;ratioP1;P2;durP2;ratioP2
39102;SDS011;24847;48.218;16.414;2024-03-08T00:00:39;29.98;;;21.00;;
39102;SDS011;24847;48.218;16.414;2024-03-08T00:05:43;33.22;;;21.52;;
39102;SDS011;24847;48.218;16.414;2024-03-08T00:10:45;34.88;;;21.73;;
39102;SDS011;24847;48.218;16.414;2024-03-08T00:15:49;32.53;;;20.65;;
39102;SDS011;24847;48.218;16.414;2024-03-08T00:20:51;29.23;;;20.60;;
39102;SDS011;24847;48.218;16.414;2024-03-08T00:25:53;28.48;;;19.15;;
39102;SDS011;24847;48.218;16.414;2024-03-08T00:30:57;30.48;;;20.77;;
39102;SDS011;24847;48.218;16.414;2024-03-08T00:35:59;29.45;;;19.70;;
39102;SDS011;24847;48.218;16.414;2024-03-08T00:41:01;28.08;;;19.45;;
39102;SDS011;24847;48.218;16.414;2024-03-08T00:46:05;30.42;;;20.73;;
39102;SDS011;24847;48.218;16.414;2024-03-08T00:51:08;28.50;;;20.17;;
39102;SDS011;24847;48.218;16.414;2024-03-08T00:56:10;26.60;;;18.42;;
39102;SDS011;24847;48.218;16.414;2024-03-08T01:01:14;29.25;;;19.42;;
39102;SDS011;24847;48.218;16.414;2024-03-08T01:06:17;28.77;;;19.92;;
39102;SDS011;24847;48.218;16.414;2024-03-08T01:11:19;33.10;;;20.80;;
39102;SDS011;24847;48.218;16.414;2024-03-08T01:16:23;30.52;;;21.00;;
39102;SDS011;24847;48.218;16.414;2024-03-08T01:21:25;29.02;;;19.67;;
39102;SDS011;24847;48.218;16.414;2024-03-08T01:26:27;32.35;;;21.33;;
39102;SDS011;24847;48.218;16.414;2024-03-08T01:31:31;31.70;;;20.48;;
39102;SDS011;24847;48.218;16.414;2024-03-08T01:36:33;28.48;;;19.45;;
39102;SDS011;24847;48.218;16.414;2024-03-08T01:41:37;28.58;;;19.98;;
39102;SDS011;24847;48.218;16.414;2024-03-08T01:46:41;30.33;;;19.13;;
39102;SDS011;24847;48.218;16.414;2024-03-08T01:51:44;28.05;;;19.05;;
39102;SDS011;24847;48.218;16.414;2024-03-08T01:56:47;26.35;;;17.90;;
39102;SDS011;24847;48.218;16.414;2024-03-08T02:01:51;30.33;;;19.75;;
39102;SDS011;24847;48.218;16.414;2024-03-08T02:06:54;27.85;;;18.35;;
39102;SDS011;24847;48.218;16.414;2024-03-08T02:11:58;27.48;;;19.33;;
39102;SDS011;24847;48.218;16.414;2024-03-08T02:17:01;31.55;;;20.58;;
39102;SDS011;24847;48.218;16.414;2024-03-08T02:22:06;32.42;;;20.58;;
39102;SDS011;24847;48.218;16.414;2024-03-08T02:27:09;28.38;;;19.02;;
39102;SDS011;24847;48.218;16.414;2024-03-08T02:32:12;28.75;;;19.85;;
39102;SDS011;24847;48.218;16.414;2024-03-08T02:37:15;27.85;;;18.90;;
39102;SDS011;24847;48.218;16.414;2024-03-08T02:42:17;29.45;;;20.10;;
39102;SDS011;24847;48.218;16.414;2024-03-08T02:47:19;28.30;;;19.45;;
39102;SDS011;24847;48.218;16.414;2024-03-08T02:52:23;28.95;;;20.20;;
39102;SDS011;24847;48.218;16.414;2024-03-08T02:57:25;32.10;;;19.88;;
39102;SDS011;24847;48.218;16.414;2024-03-08T03:02:28;31.23;;;20.65;;
39102;SDS011;24847;48.218;16.414;2024-03-08T03:07:31;28.52;;;19.40;;
39102;SDS011;24847;48.218;16.414;2024-03-08T03:12:34;30.58;;;20.02;;
39102;SDS011;24847;48.218;16.414;2024-03-08T03:17:36;31.67;;;19.83;;
39102;SDS011;24847;48.218;16.414;2024-03-08T03:22:40;30.63;;;20.38;;
39102;SDS011;24847;48.218;16.414;2024-03-08T03:27:47;31.80;;;19.88;;
39102;SDS011;24847;48.218;16.414;2024-03-08T03:32:50;29.65;;;19.75;;
39102;SDS011;24847;48.218;16.414;2024-03-08T03:37:53;29.23;;;19.67;;
39102;SDS011;24847;48.218;16.414;2024-03-08T03:43:05;31.08;;;20.10;;
39102;SDS011;24847;48.218;16.414;2024-03-08T03:48:10;29.77;;;18.90;;
39102;SDS011;24847;48.218;16.414;2024-03-08T03:53:14;27.73;;;18.63;;
39102;SDS011;24847;48.218;16.414;2024-03-08T03:58:16;28.45;;;18.98;;
39102;SDS011;24847;48.218;16.414;2024-03-08T04:03:22;27.92;;;18.65;;
39102;SDS011;24847;48.218;16.414;2024-03-08T04:08:26;30.58;;;19.15;;
39102;SDS011;24847;48.218;16.414;2024-03-08T04:13:28;28.83;;;19.15;;
39102;SDS011;24847;48.218;16.414;2024-03-08T04:18:30;28.08;;;18.33;;
39102;SDS011;24847;48.218;16.414;2024-03-08T04:23:34;32.58;;;20.95;;
39102;SDS011;24847;48.218;16.414;2024-03-08T04:28:36;36.10;;;23.02;;
39102;SDS011;24847;48.218;16.414;2024-03-08T04:33:39;28.45;;;19.88;;
39102;SDS011;24847;48.218;16.414;2024-03-08T04:38:43;31.38;;;19.10;;
39102;SDS011;24847;48.218;16.414;2024-03-08T04:43:46;28.98;;;19.35;;
39102;SDS011;24847;48.218;16.414;2024-03-08T04:48:48;27.33;;;19.45;;
39102;SDS011;24847;48.218;16.414;2024-03-08T04:53:51;31.08;;;20.60;;
39102;SDS011;24847;48.218;16.414;2024-03-08T04:58:53;28.73;;;19.42;;
39102;SDS011;24847;48.218;16.414;2024-03-08T05:03:56;26.83;;;18.58;;
39102;SDS011;24847;48.218;16.414;2024-03-08T05:08:59;28.88;;;18.77;;
39102;SDS011;24847;48.218;16.414;2024-03-08T05:14:06;30.95;;;19.10;;
39102;SDS011;24847;48.218;16.414;2024-03-08T05:19:09;29.67;;;20.25;;
39102;SDS011;24847;48.218;16.414;2024-03-08T05:24:12;28.05;;;19.25;;
39102;SDS011;24847;48.218;16.414;2024-03-08T05:29:14;29.33;;;19.85;;
39102;SDS011;24847;48.218;16.414;2024-03-08T05:34:17;27.08;;;18.63;;
39102;SDS011;24847;48.218;16.414;2024-03-08T05:39:21;27.90;;;19.17;;
39102;SDS011;24847;48.218;16.414;2024-03-08T05:44:23;30.60;;;20.25;;
39102;SDS011;24847;48.218;16.414;2024-03-08T05:49:28;30.90;;;21.15;;
39102;SDS011;24847;48.218;16.414;2024-03-08T05:54:32;30.75;;;20.80;;
39102;SDS011;24847;48.218;16.414;2024-03-08T05:59:34;31.17;;;21.40;;
39102;SDS011;24847;48.218;16.414;2024-03-08T06:04:36;31.70;;;20.58;;
39102;SDS011;24847;48.218;16.414;2024-03-08T06:09:40;28.88;;;19.70;;
39102;SDS011;24847;48.218;16.414;2024-03-08T06:14:45;29.17;;;19.83;;
39102;SDS011;24847;48.218;16.414;2024-03-08T06:19:47;27.77;;;19.48;;
39102;SDS011;24847;48.218;16.414;2024-03-08T06:24:51;29.58;;;19.40;;
39102;SDS011;24847;48.218;16.414;2024-03-08T06:29:54;27.95;;;18.95;;
39102;SDS011;24847;48.218;16.414;2024-03-08T06:34:56;28.80;;;19.85;;
39102;SDS011;24847;48.218;16.414;2024-03-08T06:40:00;28.58;;;19.40;;
39102;SDS011;24847;48.218;16.414;2024-03-08T06:45:03;31.70;;;20.42;;
39102;SDS011;24847;48.218;16.414;2024-03-08T06:50:07;28.83;;;20.33;;
39102;SDS011;24847;48.218;16.414;2024-03-08T06:55:12;29.52;;;20.08;;
39102;SDS011;24847;48.218;16.414;2024-03-08T07:00:15;29.05;;;19.88;;
39102;SDS011;24847;48.218;16.414;2024-03-08T07:05:21;27.15;;;19.17;;
39102;SDS011;24847;48.218;16.414;2024-03-08T07:10:26;30.77;;;20.50;;
39102;SDS011;24847;48.218;16.414;2024-03-08T07:15:29;29.58;;;19.65;;
39102;SDS011;24847;48.218;16.414;2024-03-08T07:20:31;28.52;;;19.17;;
39102;SDS011;24847;48.218;16.414;2024-03-08T07:25:34;26.23;;;18.60;;
39102;SDS011;24847;48.218;16.414;2024-03-08T07:30:39;27.55;;;18.92;;
39102;SDS011;24847;48.218;16.414;2024-03-08T07:36:01;28.05;;;19.25;;
39102;SDS011;24847;48.218;16.414;2024-03-08T07:41:05;28.77;;;18.48;;
39102;SDS011;24847;48.218;16.414;2024-03-08T07:46:07;28.17;;;18.52;;
39102;SDS011;24847;48.218;16.414;2024-03-08T07:51:11;26.75;;;18.85;;
39102;SDS011;24847;48.218;16.414;2024-03-08T07:56:15;27.63;;;18.55;;
39102;SDS011;24847;48.218;16.414;2024-03-08T08:01:18;24.52;;;17.50;;
39102;SDS011;24847;48.218;16.414;2024-03-08T08:06:21;27.35;;;18.65;;
39102;SDS011;24847;48.218;16.414;2024-03-08T08:11:27;30.67;;;19.85;;
39102;SDS011;24847;48.218;16.414;2024-03-08T08:16:29;28.23;;;18.63;;
39102;SDS011;24847;48.218;16.414;2024-03-08T08:21:32;32.80;;;20.70;;
39102;SDS011;24847;48.218;16.414;2024-03-08T08:26:36;30.05;;;19.10;;
39102;SDS011;24847;48.218;16.414;2024-03-08T08:31:38;26.48;;;18.77;;
39102;SDS011;24847;48.218;16.414;2024-03-08T08:36:40;28.77;;;19.70;;
39102;SDS011;24847;48.218;16.414;2024-03-08T08:41:44;30.75;;;20.08;;
39102;SDS011;24847;48.218;16.414;2024-03-08T08:46:47;29.65;;;20.67;;
39102;SDS011;24847;48.218;16.414;2024-03-08T08:51:49;30.02;;;20.17;;
39102;SDS011;24847;48.218;16.414;2024-03-08T08:56:53;28.33;;;19.60;;
39102;SDS011;24847;48.218;16.414;2024-03-08T09:01:55;28.08;;;18.80;;
39102;SDS011;24847;48.218;16.414;2024-03-08T09:06:57;26.88;;;18.70;;
39102;SDS011;24847;48.218;16.414;2024-03-08T09:12:03;27.40;;;18.88;;
39102;SDS011;24847;48.218;16.414;2024-03-08T09:17:06;28.58;;;18.52;;
39102;SDS011;24847;48.218;16.414;2024-03-08T09:22:09;30.08;;;19.40;;
39102;SDS011;24847;48.218;16.414;2024-03-08T09:27:12;30.52;;;19.52;;
39102;SDS011;24847;48.218;16.414;2024-03-08T09:32:14;31.23;;;21.25;;
39102;SDS011;24847;48.218;16.414;2024-03-08T09:37:17;30.15;;;20.13;;
39102;SDS011;24847;48.218;16.414;2024-03-08T09:42:20;29.45;;;19.88;;
39102;SDS011;24847;48.218;16.414;2024-03-08T09:47:22;29.30;;;19.13;;
39102;SDS011;24847;48.218;16.414;2024-03-08T09:52:29;27.10;;;18.33;;
39102;SDS011;24847;48.218;16.414;2024-03-08T09:57:34;27.52;;;18.63;;
39102;SDS011;24847;48.218;16.414;2024-03-08T10:02:38;29.95;;;18.95;;
39102;SDS011;24847;48.218;16.414;2024-03-08T10:07:40;30.05;;;18.85;;
39102;SDS011;24847;48.218;16.414;2024-03-08T10:12:44;29.20;;;18.23;;
39102;SDS011;24847;48.218;16.414;2024-03-08T10:17:47;25.80;;;16.98;;
39102;SDS011;24847;48.218;16.414;2024-03-08T10:22:49;29.52;;;18.52;;
39102;SDS011;24847;48.218;16.414;2024-03-08T10:27:53;27.83;;;18.67;;
39102;SDS011;24847;48.218;16.414;2024-03-08T10:32:55;32.80;;;20.80;;
39102;SDS011;24847;48.218;16.414;2024-03-08T10:37:58;30.75;;;19.25;;
39102;SDS011;24847;48.218;16.414;2024-03-08T10:43:05;29.98;;;18.02;;
39102;SDS011;24847;48.218;16.414;2024-03-08T10:48:24;28.40;;;18.05;;
39102;SDS011;24847;48.218;16.414;2024-03-08T10:53:31;27.70;;;18.20;;
39102;SDS011;24847;48.218;16.414;2024-03-08T10:58:38;30.08;;;18.23;;
39102;SDS011;24847;48.218;16.414;2024-03-08T11:03:44;26.58;;;16.70;;
39102;SDS011;24847;48.218;16.414;2024-03-08T11:08:49;27.48;;;17.27;;
39102;SDS011;24847;48.218;16.414;2024-03-08T11:13:53;34.30;;;19.25;;
39102;SDS011;24847;48.218;16.414;2024-03-08T11:18:56;26.42;;;17.55;;
39102;SDS011;24847;48.218;16.414;2024-03-08T11:24:06;28.08;;;18.25;;
39102;SDS011;24847;48.218;16.414;2024-03-08T11:34:39;25.73;;;17.00;;
39102;SDS011;24847;48.218;16.414;2024-03-08T11:39:47;25.17;;;16.63;;
39102;SDS011;24847;48.218;16.414;2024-03-08T11:44:52;18.25;;;13.68;;
39102;SDS011;24847;48.218;16.414;2024-03-08T11:49:55;16.08;;;11.40;;
39102;SDS011;24847;48.218;16.414;2024-03-08T11:54:57;15.75;;;11.70;;
39102;SDS011;24847;48.218;16.414;2024-03-08T12:00:01;14.70;;;9.73;;
39102;SDS011;24847;48.218;16.414;2024-03-08T12:05:07;13.13;;;9.70;;
39102;SDS011;24847;48.218;16.414;2024-03-08T12:10:16;13.13;;;9.55;;
39102;SDS011;24847;48.218;16.414;2024-03-08T12:15:23;12.38;;;9.18;;
39102;SDS011;24847;48.218;16.414;2024-03-08T12:20:26;12.23;;;8.93;;
39102;SDS011;24847;48.218;16.414;2024-03-08T12:25:31;14.68;;;10.02;;
39102;SDS011;24847;48.218;16.414;2024-03-08T12:30:36;11.73;;;8.68;;
39102;SDS011;24847;48.218;16.414;2024-03-08T12:35:51;11.07;;;8.50;;
39102;SDS011;24847;48.218;16.414;2024-03-08T12:40:55;14.35;;;9.52;;
39102;SDS011;24847;48.218;16.414;2024-03-08T12:46:01;10.57;;;8.52;;
39102;SDS011;24847;48.218;16.414;2024-03-08T12:51:05;11.45;;;8.88;;
39102;SDS011;24847;48.218;16.414;2024-03-08T12:56:09;11.93;;;8.45;;
39102;SDS011;24847;48.218;16.414;2024-03-08T13:01:12;9.15;;;7.07;;
39102;SDS011;24847;48.218;16.414;2024-03-08T13:06:15;10.98;;;8.07;;
39102;SDS011;24847;48.218;16.414;2024-03-08T13:11:18;10.88;;;7.90;;
39102;SDS011;24847;48.218;16.414;2024-03-08T13:16:21;9.77;;;7.40;;
39102;SDS011;24847;48.218;16.414;2024-03-08T13:21:24;9.07;;;7.13;;
39102;SDS011;24847;48.218;16.414;2024-03-08T13:26:26;10.07;;;7.35;;
39102;SDS011;24847;48.218;16.414;2024-03-08T13:31:34;9.77;;;7.13;;
39102;SDS011;24847;48.218;16.414;2024-03-08T13:36:37;10.05;;;7.38;;
39102;SDS011;24847;48.218;16.414;2024-03-08T13:41:44;9.13;;;6.90;;
39102;SDS011;24847;48.218;16.414;2024-03-08T13:46:48;8.23;;;6.40;;
39102;SDS011;24847;48.218;16.414;2024-03-08T13:51:51;10.48;;;7.63;;
39102;SDS011;24847;48.218;16.414;2024-03-08T13:56:55;10.52;;;7.80;;
39102;SDS011;24847;48.218;16.414;2024-03-08T14:01:58;9.85;;;7.38;;
39102;SDS011;24847;48.218;16.414;2024-03-08T14:07:02;8.73;;;6.60;;
39102;SDS011;24847;48.218;16.414;2024-03-08T14:12:05;9.60;;;7.80;;
39102;SDS011;24847;48.218;16.414;2024-03-08T14:17:10;10.90;;;8.18;;
39102;SDS011;24847;48.218;16.414;2024-03-08T14:22:17;11.75;;;9.13;;
39102;SDS011;24847;48.218;16.414;2024-03-08T14:27:20;10.60;;;7.57;;
39102;SDS011;24847;48.218;16.414;2024-03-08T14:32:24;11.18;;;8.38;;
39102;SDS011;24847;48.218;16.414;2024-03-08T14:37:26;11.40;;;8.75;;
39102;SDS011;24847;48.218;16.414;2024-03-08T14:42:29;12.45;;;9.68;;
39102;SDS011;24847;48.218;16.414;2024-03-08T14:47:33;13.13;;;9.32;;
39102;SDS011;24847;48.218;16.414;2024-03-08T14:52:35;12.90;;;9.43;;
39102;SDS011;24847;48.218;16.414;2024-03-08T14:57:40;12.05;;;8.90;;
39102;SDS011;24847;48.218;16.414;2024-03-08T15:02:44;12.65;;;9.43;;
39102;SDS011;24847;48.218;16.414;2024-03-08T15:07:46;11.68;;;8.40;;
39102;SDS011;24847;48.218;16.414;2024-03-08T15:12:50;12.60;;;8.30;;
39102;SDS011;24847;48.218;16.414;2024-03-08T15:17:56;9.95;;;7.47;;
39102;SDS011;24847;48.218;16.414;2024-03-08T15:22:59;11.07;;;8.30;;
39102;SDS011;24847;48.218;16.414;2024-03-08T15:28:01;11.50;;;8.15;;
39102;SDS011;24847;48.218;16.414;2024-03-08T15:33:06;12.43;;;9.05;;
39102;SDS011;24847;48.218;16.414;2024-03-08T15:38:11;11.93;;;8.20;;
39102;SDS011;24847;48.218;16.414;2024-03-08T15:43:13;11.88;;;9.25;;
39102;SDS011;24847;48.218;16.414;2024-03-08T15:48:18;10.10;;;8.10;;
39102;SDS011;24847;48.218;16.414;2024-03-08T15:53:21;11.27;;;9.13;;
39102;SDS011;24847;48.218;16.414;2024-03-08T15:58:24;11.70;;;9.25;;
39102;SDS011;24847;48.218;16.414;2024-03-08T16:03:28;11.77;;;8.63;;
39102;SDS011;24847;48.218;16.414;2024-03-08T16:08:30;11.07;;;8.73;;
39102;SDS011;24847;48.218;16.414;2024-03-08T16:13:36;11.25;;;8.77;;
39102;SDS011;24847;48.218;16.414;2024-03-08T16:18:40;11.05;;;8.38;;
39102;SDS011;24847;48.218;16.414;2024-03-08T16:23:42;12.60;;;8.82;;
39102;SDS011;24847;48.218;16.414;2024-03-08T16:28:46;11.25;;;8.80;;
39102;SDS011;24847;48.218;16.414;2024-03-08T16:33:50;12.60;;;9.18;;
39102;SDS011;24847;48.218;16.414;2024-03-08T16:38:52;12.30;;;9.15;;
39102;SDS011;24847;48.218;16.414;2024-03-08T16:43:54;13.15;;;9.60;;
39102;SDS011;24847;48.218;16.414;2024-03-08T16:48:59;9.88;;;8.32;;
39102;SDS011;24847;48.218;16.414;2024-03-08T16:54:04;11.88;;;8.93;;
39102;SDS011;24847;48.218;16.414;2024-03-08T16:59:08;12.65;;;9.27;;
39102;SDS011;24847;48.218;16.414;2024-03-08T17:04:12;11.07;;;8.32;;
39102;SDS011;24847;48.218;16.414;2024-03-08T17:09:15;12.07;;;9.32;;
39102;SDS011;24847;48.218;16.414;2024-03-08T17:14:17;11.18;;;8.70;;
39102;SDS011;24847;48.218;16.414;2024-03-08T17:19:22;10.90;;;8.38;;
39102;SDS011;24847;48.218;16.414;2024-03-08T17:24:27;11.40;;;9.27;;
39102;SDS011;24847;48.218;16.414;2024-03-08T17:29:29;10.93;;;8.52;;
39102;SDS011;24847;48.218;16.414;2024-03-08T17:34:33;10.82;;;8.18;;
39102;SDS011;24847;48.218;16.414;2024-03-08T17:39:36;9.85;;;7.70;;
39102;SDS011;24847;48.218;16.414;2024-03-08T17:44:40;10.25;;;8.15;;
39102;SDS011;24847;48.218;16.414;2024-03-08T17:49:43;10.57;;;8.07;;
39102;SDS011;24847;48.218;16.414;2024-03-08T17:54:46;10.30;;;8.18;;
39102;SDS011;24847;48.218;16.414;2024-03-08T17:59:50;9.90;;;7.82;;
39102;SDS011;24847;48.218;16.414;2024-03-08T18:04:53;12.95;;;9.63;;
39102;SDS011;24847;48.218;16.414;2024-03-08T18:09:56;10.15;;;8.23;;
39102;SDS011;24847;48.218;16.414;2024-03-08T18:14:59;11.13;;;8.25;;
39102;SDS011;24847;48.218;16.414;2024-03-08T18:20:02;11.48;;;8.68;;
39102;SDS011;24847;48.218;16.414;2024-03-08T18:25:06;9.50;;;7.93;;
39102;SDS011;24847;48.218;16.414;2024-03-08T18:30:12;11.10;;;9.00;;
39102;SDS011;24847;48.218;16.414;2024-03-08T18:35:18;11.45;;;9.00;;
39102;SDS011;24847;48.218;16.414;2024-03-08T18:40:22;12.05;;;9.30;;
39102;SDS011;24847;48.218;16.414;2024-03-08T18:45:24;11.63;;;8.88;;
39102;SDS011;24847;48.218;16.414;2024-03-08T18:50:29;13.57;;;10.00;;
39102;SDS011;24847;48.218;16.414;2024-03-08T18:55:31;14.15;;;10.43;;
39102;SDS011;24847;48.218;16.414;2024-03-08T19:00:35;11.65;;;9.38;;
39102;SDS011;24847;48.218;16.414;2024-03-08T19:05:39;9.70;;;8.02;;
39102;SDS011;24847;48.218;16.414;2024-03-08T19:10:41;12.07;;;8.98;;
39102;SDS011;24847;48.218;16.414;2024-03-08T19:15:44;11.88;;;8.75;;
39102;SDS011;24847;48.218;16.414;2024-03-08T19:20:52;10.05;;;8.23;;
39102;SDS011;24847;48.218;16.414;2024-03-08T19:25:56;11.10;;;8.50;;
39102;SDS011;24847;48.218;16.414;2024-03-08T19:30:59;9.75;;;7.97;;
39102;SDS011;24847;48.218;16.414;2024-03-08T19:36:04;11.75;;;9.70;;
39102;SDS011;24847;48.218;16.414;2024-03-08T19:41:10;11.00;;;8.63;;
39102;SDS011;24847;48.218;16.414;2024-03-08T19:46:13;13.20;;;10.57;;
39102;SDS011;24847;48.218;16.414;2024-03-08T19:51:17;13.55;;;9.75;;
39102;SDS011;24847;48.218;16.414;2024-03-08T19:56:19;13.15;;;9.85;;
39102;SDS011;24847;48.218;16.414;2024-03-08T20:01:22;11.75;;;9.48;;
39102;SDS011;24847;48.218;16.414;2024-03-08T20:06:26;13.23;;;10.23;;
39102;SDS011;24847;48.218;16.414;2024-03-08T20:11:28;13.63;;;10.48;;
39102;SDS011;24847;48.218;16.414;2024-03-08T20:16:30;18.23;;;13.05;;
39102;SDS011;24847;48.218;16.414;2024-03-08T20:21:34;15.35;;;11.98;;
39102;SDS011;24847;48.218;16.414;2024-03-08T20:26:36;22.33;;;18.13;;
39102;SDS011;24847;48.218;16.414;2024-03-08T20:31:38;46.75;;;28.65;;
39102;SDS011;24847;48.218;16.414;2024-03-08T20:36:43;19.17;;;13.23;;
39102;SDS011;24847;48.218;16.414;2024-03-08T20:41:45;14.85;;;10.88;;
39102;SDS011;24847;48.218;16.414;2024-03-08T20:46:47;11.80;;;9.88;;
39102;SDS011;24847;48.218;16.414;2024-03-08T20:51:54;11.57;;;9.10;;
39102;SDS011;24847;48.218;16.414;2024-03-08T20:56:57;13.23;;;9.60;;
39102;SDS011;24847;48.218;16.414;2024-03-08T21:01:59;13.32;;;10.07;;
39102;SDS011;24847;48.218;16.414;2024-03-08T21:07:02;14.30;;;10.45;;
39102;SDS011;24847;48.218;16.414;2024-03-08T21:12:06;13.07;;;9.88;;
39102;SDS011;24847;48.218;16.414;2024-03-08T21:17:11;13.43;;;9.07;;
39102;SDS011;24847;48.218;16.414;2024-03-08T21:22:25;10.93;;;8.95;;
39102;SDS011;24847;48.218;16.414;2024-03-08T21:27:27;16.55;;;11.85;;
39102;SDS011;24847;48.218;16.414;2024-03-08T21:32:29;15.73;;;11.65;;
39102;SDS011;24847;48.218;16.414;2024-03-08T21:37:34;15.90;;;12.00;;
39102;SDS011;24847;48.218;16.414;2024-03-08T21:42:37;15.88;;;11.43;;
39102;SDS011;24847;48.218;16.414;2024-03-08T21:47:40;15.32;;;11.35;;
39102;SDS011;24847;48.218;16.414;2024-03-08T21:52:44;15.23;;;10.98;;
39102;SDS011;24847;48.218;16.414;2024-03-08T21:57:47;15.82;;;11.02;;
39102;SDS011;24847;48.218;16.414;2024-03-08T22:02:50;14.98;;;10.25;;
39102;SDS011;24847;48.218;16.414;2024-03-08T22:07:53;14.75;;;10.70;;
39102;SDS011;24847;48.218;16.414;2024-03-08T22:12:56;14.45;;;11.05;;
39102;SDS011;24847;48.218;16.414;2024-03-08T22:17:58;17.50;;;12.15;;
39102;SDS011;24847;48.218;16.414;2024-03-08T22:23:01;15.15;;;11.02;;
39102;SDS011;24847;48.218;16.414;2024-03-08T22:28:06;14.75;;;9.93;;
39102;SDS011;24847;48.218;16.414;2024-03-08T22:33:08;13.20;;;10.10;;
39102;SDS011;24847;48.218;16.414;2024-03-08T22:38:12;14.32;;;10.98;;
39102;SDS011;24847;48.218;16.414;2024-03-08T22:43:17;14.95;;;10.75;;
39102;SDS011;24847;48.218;16.414;2024-03-08T22:48:19;12.93;;;9.75;;
39102;SDS011;24847;48.218;16.414;2024-03-08T22:53:24;13.68;;;10.27;;
39102;SDS011;24847;48.218;16.414;2024-03-08T22:58:28;16.67;;;11.93;;
39102;SDS011;24847;48.218;16.414;2024-03-08T23:03:30;16.52;;;12.10;;
39102;SDS011;24847;48.218;16.414;2024-03-08T23:08:36;15.57;;;11.55;;
39102;SDS011;24847;48.218;16.414;2024-03-08T23:13:41;15.48;;;11.32;;
39102;SDS011;24847;48.218;16.414;2024-03-08T23:18:45;13.85;;;10.40;;
39102;SDS011;24847;48.218;16.414;2024-03-08T23:23:53;14.15;;;10.80;;
39102;SDS011;24847;48.218;16.414;2024-03-08T23:28:55;14.60;;;11.25;;
39102;SDS011;24847;48.218;16.414;2024-03-08T23:33:59;15.32;;;11.48;;
39102;SDS011;24847;48.218;16.414;2024-03-08T23:39:03;15.00;;;10.90;;
39102;SDS011;24847;48.218;16.414;2024-03-08T23:44:09;13.02;;;10.02;;
39102;SDS011;24847;48.218;16.414;2024-03-08T23:49:11;12.93;;;10.10;;
39102;SDS011;24847;48.218;16.414;2024-03-08T23:54:18;12.93;;;9.52;;
39102;SDS011;24847;48.218;16.414;2024-03-08T23:59:22;14.40;;;10.57;;
